White Heath, Illinois
Current Conditions -  °F | °C
As of 5:53 AM on Wednesday 28 Jan 2015 (Local Time) from KCMI Reporting Station
Clear Clear  
Wind Chill: 12°   Ceiling: Unl
Heat Index: 21°   Visibility: 7mi
Dew Point: 17°   Wind: 7mph
Humidity: 85%   Direction: 120°ESE
Pressure: 30.28"   Gusts: NA
Location:  40.08°N, 88.51°W
Report Text: KCMI 281153Z 12006KT 7SM CLR M06/M08 A3028 RMK AO2 SLP263 I6000 T10611083 11050 21078 53001
Loading
Personal Weather Stations






























Interactive Weather Map New forecast layout! Learn more

10-Day Weather Forecast

Advertisements
Track Severe Weather on mobile